createdAt,value
2018-03-17T00:01:25.489Z,4.70
2018-03-17T00:03:53.042Z,4.30
2018-03-17T00:06:20.537Z,4.20
2018-03-17T00:08:48.098Z,4.30
2018-03-17T00:11:15.581Z,4.40
2018-03-17T00:13:43.844Z,4.50
2018-03-17T00:16:11.350Z,4.50
2018-03-17T00:18:38.824Z,4.50
2018-03-17T00:21:06.365Z,4.50
2018-03-17T00:23:33.866Z,4.40
2018-03-17T00:26:01.356Z,4.20
2018-03-17T00:28:29.661Z,4.20
2018-03-17T00:30:57.168Z,4.10
2018-03-17T00:33:24.685Z,4.20
2018-03-17T00:35:52.171Z,4.30
2018-03-17T00:38:19.666Z,4.30
2018-03-17T00:40:47.944Z,4.30
2018-03-17T00:43:15.500Z,4.20
2018-03-17T00:45:43.751Z,4.30
2018-03-17T00:48:11.241Z,4.30
2018-03-17T00:50:38.807Z,4.30
2018-03-17T00:53:06.369Z,4.30
2018-03-17T00:55:33.868Z,4.20
2018-03-17T00:58:01.381Z,3.90
2018-03-17T01:00:29.004Z,3.90
2018-03-17T01:02:57.264Z,3.90
2018-03-17T01:05:24.744Z,3.80
2018-03-17T01:07:53.046Z,3.60
2018-03-17T01:10:20.535Z,3.50
2018-03-17T01:12:48.063Z,3.50
2018-03-17T01:15:15.559Z,3.50
2018-03-17T01:17:43.055Z,3.80
2018-03-17T01:20:10.578Z,3.90
2018-03-17T01:22:38.083Z,4.00
2018-03-17T01:25:05.593Z,4.00
2018-03-17T01:27:33.113Z,4.10
2018-03-17T01:30:00.613Z,4.00
2018-03-17T01:32:28.133Z,4.00
2018-03-17T01:34:55.635Z,3.90
2018-03-17T01:37:23.905Z,3.70
2018-03-17T01:39:52.190Z,3.40
2018-03-17T01:42:20.455Z,3.20
2018-03-17T01:44:48.737Z,3.10
2018-03-17T01:47:17.079Z,3.30
2018-03-17T01:49:44.573Z,3.20
2018-03-17T01:52:12.988Z,3.60
2018-03-17T01:54:40.475Z,3.50
2018-03-17T01:57:07.956Z,3.60
2018-03-17T01:59:36.218Z,3.80
2018-03-17T02:02:03.710Z,3.70
2018-03-17T02:04:31.199Z,3.90
2018-03-17T02:06:58.687Z,3.90
2018-03-17T02:09:26.210Z,3.80
2018-03-17T02:11:53.707Z,3.70
2018-03-17T02:14:22.009Z,3.70
2018-03-17T02:16:49.527Z,3.70
2018-03-17T02:19:17.812Z,3.80
2018-03-17T02:21:45.399Z,3.80
2018-03-17T02:24:12.886Z,3.90
2018-03-17T02:26:40.383Z,3.90
2018-03-17T02:29:07.877Z,3.80
2018-03-17T02:31:35.370Z,3.70
2018-03-17T02:34:02.877Z,3.70
2018-03-17T02:36:30.356Z,3.80
2018-03-17T02:38:57.841Z,3.80
2018-03-17T02:41:25.344Z,3.80
2018-03-17T02:43:52.832Z,3.80
2018-03-17T02:46:20.334Z,3.80
2018-03-17T02:48:48.649Z,3.80
2018-03-17T02:51:16.266Z,3.70
2018-03-17T02:53:44.441Z,3.70
2018-03-17T02:56:12.697Z,3.80
2018-03-17T02:58:40.177Z,3.70
2018-03-17T03:01:08.491Z,3.80
2018-03-17T03:03:35.977Z,3.70
2018-03-17T03:06:03.469Z,3.80
2018-03-17T03:08:31.801Z,3.80
2018-03-17T03:10:59.304Z,3.80
2018-03-17T03:13:27.577Z,3.80
2018-03-17T03:15:55.858Z,3.70
2018-03-17T03:18:24.128Z,3.50
2018-03-17T03:20:52.406Z,3.30
2018-03-17T03:23:20.685Z,3.40
2018-03-17T03:25:48.252Z,3.40
2018-03-17T03:28:15.759Z,3.60
2018-03-17T03:30:43.266Z,3.70
2018-03-17T03:33:11.632Z,3.80
2018-03-17T03:35:39.142Z,3.90
2018-03-17T03:38:06.625Z,3.90
2018-03-17T03:40:34.102Z,3.90
2018-03-17T03:43:02.501Z,3.70
2018-03-17T03:45:29.987Z,3.70
2018-03-17T03:47:57.483Z,3.70
2018-03-17T03:50:25.790Z,3.50
2018-03-17T03:52:53.305Z,3.50
2018-03-17T03:55:21.583Z,3.50
2018-03-17T03:57:49.986Z,3.70
2018-03-17T04:00:17.483Z,3.60
2018-03-17T04:02:45.023Z,3.70
2018-03-17T04:05:12.533Z,3.80
2018-03-17T04:07:40.823Z,3.70
2018-03-17T04:10:09.109Z,3.70
2018-03-17T04:12:36.591Z,3.60
2018-03-17T04:15:04.120Z,3.80
2018-03-17T04:17:31.771Z,3.80
2018-03-17T04:20:00.031Z,3.50
2018-03-17T04:22:28.307Z,3.50
2018-03-17T04:24:56.595Z,3.60
2018-03-17T04:27:24.089Z,3.60
2018-03-17T04:29:51.589Z,3.60
2018-03-17T04:32:19.179Z,3.60
2018-03-17T04:34:46.667Z,3.60
2018-03-17T04:37:14.163Z,3.60
2018-03-17T04:39:42.469Z,3.60
2018-03-17T04:42:09.969Z,3.50
2018-03-17T04:44:37.447Z,3.50
2018-03-17T04:47:04.946Z,3.50
2018-03-17T04:49:32.445Z,3.50
2018-03-17T04:51:59.932Z,3.50
2018-03-17T04:54:28.202Z,3.50
2018-03-17T04:56:56.474Z,3.60
2018-03-17T04:59:24.739Z,3.60
2018-03-17T05:01:52.247Z,3.60
2018-03-17T05:04:19.728Z,3.60
2018-03-17T05:06:47.229Z,3.50
2018-03-17T05:09:15.503Z,3.50
2018-03-17T05:11:43.786Z,3.50
2018-03-17T05:14:11.289Z,3.40
2018-03-17T05:16:38.901Z,3.50
2018-03-17T05:19:06.468Z,3.50
2018-03-17T05:21:34.041Z,3.50
2018-03-17T05:24:01.547Z,3.50
2018-03-17T05:26:29.031Z,3.50
2018-03-17T05:28:56.530Z,3.50
2018-03-17T05:31:24.107Z,3.50
2018-03-17T05:33:51.615Z,3.50
2018-03-17T05:36:19.127Z,3.60
2018-03-17T05:38:46.607Z,3.60
2018-03-17T05:41:14.893Z,3.50
2018-03-17T05:43:42.440Z,3.50
2018-03-17T05:46:10.693Z,3.50
2018-03-17T05:48:38.965Z,3.40
2018-03-17T05:51:06.554Z,3.40
2018-03-17T05:53:34.107Z,3.30
2018-03-17T05:56:02.364Z,3.40
2018-03-17T05:58:30.638Z,3.40
2018-03-17T06:00:58.915Z,3.40
2018-03-17T06:03:27.179Z,3.50
2018-03-17T06:05:54.716Z,3.40
2018-03-17T06:08:22.208Z,3.50
2018-03-17T06:10:50.502Z,3.70
2018-03-17T06:13:18.045Z,3.60
2018-03-17T06:15:46.326Z,3.80
2018-03-17T06:18:13.851Z,3.80
2018-03-17T06:20:41.359Z,3.80
2018-03-17T06:23:08.869Z,3.70
2018-03-17T06:25:36.343Z,3.80
2018-03-17T06:28:04.613Z,3.80
2018-03-17T06:30:32.885Z,3.90
2018-03-17T06:33:01.193Z,3.90
2018-03-17T06:35:28.742Z,3.80
2018-03-17T06:37:56.228Z,3.90
2018-03-17T06:40:23.746Z,4.00
2018-03-17T06:42:51.236Z,4.10
2018-03-17T06:45:18.761Z,4.20
2018-03-17T06:47:46.266Z,4.20
2018-03-17T06:50:14.342Z,4.30
2018-03-17T06:52:42.644Z,4.70
2018-03-17T06:55:10.925Z,5.40
2018-03-17T06:57:39.220Z,6.00
2018-03-17T07:00:06.733Z,6.00
2018-03-17T07:02:34.347Z,6.50
2018-03-17T07:05:01.875Z,6.50
2018-03-17T07:07:30.150Z,6.80
2018-03-17T07:09:58.441Z,7.00
2018-03-17T07:12:26.007Z,6.90
2018-03-17T07:14:53.516Z,7.50
2018-03-17T07:17:21.004Z,7.80
2018-03-17T07:19:49.287Z,8.20
2018-03-17T07:22:16.807Z,8.10
2018-03-17T07:24:44.415Z,8.30
2018-03-17T07:27:11.941Z,8.60
2018-03-17T07:29:40.249Z,8.90
2018-03-17T07:32:07.839Z,8.90
2018-03-17T07:34:35.308Z,8.80
2018-03-17T07:37:02.924Z,8.60
2018-03-17T07:39:30.481Z,8.90
2018-03-17T07:41:58.015Z,9.70
2018-03-17T07:44:26.286Z,9.30
2018-03-17T07:46:54.561Z,10.20
2018-03-17T07:49:22.849Z,10.90
2018-03-17T07:51:50.360Z,10.90
2018-03-17T07:54:17.888Z,10.80
2018-03-17T07:56:45.387Z,11.30
2018-03-17T07:59:12.965Z,11.90
2018-03-17T08:01:41.226Z,12.70
2018-03-17T08:04:09.508Z,12.60
2018-03-17T08:06:37.772Z,13.20
2018-03-17T08:09:06.064Z,12.90
2018-03-17T08:11:34.354Z,11.30
2018-03-17T08:14:01.865Z,11.20
2018-03-17T08:16:29.367Z,9.70
2018-03-17T08:18:56.874Z,7.20
2018-03-17T08:21:24.410Z,7.00
2018-03-17T08:23:51.907Z,7.50
2018-03-17T08:26:20.201Z,7.30
2018-03-17T08:28:48.460Z,7.20
2018-03-17T08:31:16.725Z,6.30
2018-03-17T08:33:44.237Z,6.20
2018-03-17T08:36:11.723Z,6.00
2018-03-17T08:38:39.259Z,5.60
2018-03-17T08:41:06.812Z,5.70
2018-03-17T08:43:34.331Z,5.50
2018-03-17T08:46:02.594Z,4.90
2018-03-17T08:48:30.843Z,5.20
2018-03-17T08:50:58.345Z,5.10
2018-03-17T08:53:25.919Z,5.10
2018-03-17T08:55:53.420Z,5.10
2018-03-17T08:58:20.927Z,5.40
2018-03-17T09:00:48.541Z,5.20
2018-03-17T09:03:16.138Z,5.30
2018-03-17T09:05:43.708Z,5.40
2018-03-17T09:08:11.222Z,5.30
2018-03-17T09:10:38.891Z,5.30
2018-03-17T09:13:07.177Z,5.40
2018-03-17T09:15:35.461Z,5.70
2018-03-17T09:18:14.389Z,5.70
2018-03-17T09:20:41.908Z,5.50
2018-03-17T09:23:09.398Z,5.60
2018-03-17T09:25:36.963Z,5.40
2018-03-17T09:28:04.450Z,5.40
2018-03-17T09:30:31.944Z,5.30
2018-03-17T09:33:00.226Z,5.10
2018-03-17T09:35:28.525Z,4.90
2018-03-17T09:37:56.162Z,4.90
2018-03-17T09:40:24.421Z,5.40
2018-03-17T09:42:52.005Z,5.30
2018-03-17T09:45:20.310Z,5.50
2018-03-17T09:47:47.840Z,5.40
2018-03-17T09:50:15.418Z,5.40
2018-03-17T09:52:42.996Z,5.40
2018-03-17T09:55:10.495Z,5.60
2018-03-17T09:57:38.811Z,5.50
2018-03-17T10:00:06.332Z,5.50
2018-03-17T10:02:34.597Z,6.00
2018-03-17T10:05:02.867Z,6.20
2018-03-17T10:07:30.363Z,6.10
2018-03-17T10:09:57.888Z,6.30
2018-03-17T10:12:26.156Z,5.80
2018-03-17T10:14:54.471Z,5.70
2018-03-17T10:17:21.967Z,5.60
2018-03-17T10:19:49.465Z,5.80
2018-03-17T10:22:17.739Z,6.20
2018-03-17T10:24:46.014Z,6.00
2018-03-17T10:27:14.257Z,5.90
2018-03-17T10:29:41.843Z,5.80
2018-03-17T10:32:10.105Z,6.00
2018-03-17T10:34:38.509Z,5.90
2018-03-17T10:37:06.009Z,5.90
2018-03-17T10:39:33.530Z,6.00
2018-03-17T10:42:01.047Z,6.20
2018-03-17T10:44:28.571Z,6.20
2018-03-17T10:46:56.097Z,6.10
2018-03-17T10:49:23.663Z,6.20
2018-03-17T10:51:51.161Z,6.40
2018-03-17T10:54:18.660Z,6.30
2018-03-17T10:56:46.168Z,6.10
2018-03-17T10:59:13.661Z,5.80
2018-03-17T11:01:41.944Z,5.70
2018-03-17T11:04:09.466Z,5.70
2018-03-17T11:06:36.969Z,5.60
2018-03-17T11:09:04.455Z,5.70
2018-03-17T11:11:32.180Z,5.80
2018-03-17T11:13:59.667Z,5.90
2018-03-17T11:16:27.165Z,6.00
2018-03-17T11:18:55.440Z,6.00
2018-03-17T11:21:22.943Z,5.90
2018-03-17T11:23:50.464Z,5.50
2018-03-17T11:26:18.749Z,5.50
2018-03-17T11:28:47.016Z,5.20
2018-03-17T11:31:15.368Z,5.20
2018-03-17T11:33:42.891Z,5.10
2018-03-17T11:36:10.476Z,5.40
2018-03-17T11:38:37.976Z,5.30
2018-03-17T11:41:06.249Z,5.10
2018-03-17T11:43:33.760Z,5.00
2018-03-17T11:46:01.259Z,5.00
2018-03-17T11:48:28.780Z,4.90
2018-03-17T11:50:56.282Z,4.80
2018-03-17T11:53:23.767Z,4.80
2018-03-17T11:55:51.273Z,4.80
2018-03-17T11:58:19.541Z,4.50
2018-03-17T12:00:47.068Z,4.40
2018-03-17T12:03:14.606Z,4.50
2018-03-17T12:05:42.117Z,4.60
2018-03-17T12:08:10.418Z,4.60
2018-03-17T12:10:37.941Z,4.60
2018-03-17T12:13:05.524Z,4.60
2018-03-17T12:15:33.769Z,4.80
2018-03-17T12:18:01.271Z,4.80
2018-03-17T12:20:28.805Z,4.80
2018-03-17T12:22:57.091Z,4.80
2018-03-17T12:25:24.582Z,4.80
2018-03-17T12:27:52.157Z,4.90
2018-03-17T12:30:19.782Z,4.90
2018-03-17T12:32:47.273Z,4.90
2018-03-17T12:35:14.805Z,4.80
2018-03-17T12:37:42.325Z,4.90
2018-03-17T12:40:10.590Z,5.10
2018-03-17T12:42:38.864Z,4.90
2018-03-17T12:45:07.124Z,4.70
2018-03-17T12:47:34.670Z,4.70
2018-03-17T12:50:02.160Z,4.60
2018-03-17T12:52:30.448Z,4.30
2018-03-17T12:54:57.958Z,4.30
2018-03-17T12:57:25.485Z,4.50
2018-03-17T12:59:53.007Z,4.50
2018-03-17T13:02:21.289Z,4.50
2018-03-17T13:04:49.584Z,4.30
2018-03-17T13:07:17.074Z,4.20
2018-03-17T13:09:44.606Z,4.20
2018-03-17T13:12:12.119Z,4.20
2018-03-17T13:14:40.396Z,4.10
2018-03-17T13:17:08.722Z,4.30
2018-03-17T13:19:36.348Z,4.30
2018-03-17T13:22:03.854Z,4.20
2018-03-17T13:24:31.357Z,4.40
2018-03-17T13:27:10.593Z,4.20
2018-03-17T13:29:38.154Z,4.20
2018-03-17T13:35:01.708Z,4.10
2018-03-17T13:37:37.848Z,4.20
2018-03-17T13:40:17.321Z,4.10
2018-03-17T13:42:45.603Z,4.40
2018-03-17T13:45:13.119Z,4.40
2018-03-17T13:47:40.633Z,4.50
2018-03-17T13:50:08.120Z,4.50
2018-03-17T13:52:35.661Z,4.60
2018-03-17T13:55:03.168Z,4.60
2018-03-17T13:57:31.441Z,4.80
2018-03-17T13:59:59.709Z,4.70
2018-03-17T14:02:28.133Z,4.50
2018-03-17T14:04:55.695Z,4.50
2018-03-17T14:07:23.193Z,4.40
2018-03-17T14:09:50.704Z,4.50
2018-03-17T14:12:18.280Z,4.60
2018-03-17T14:14:45.796Z,4.40
2018-03-17T14:17:14.078Z,4.40
2018-03-17T14:19:41.629Z,4.30
2018-03-17T14:22:09.191Z,4.30
2018-03-17T14:24:36.927Z,4.10
2018-03-17T14:27:05.242Z,4.20
2018-03-17T14:29:32.757Z,4.20
2018-03-17T14:32:01.099Z,4.00
2018-03-17T14:34:28.639Z,3.80
2018-03-17T14:36:56.229Z,4.20
2018-03-17T14:39:23.719Z,4.40
2018-03-17T14:41:52.005Z,4.00
2018-03-17T14:44:19.529Z,3.90
2018-03-17T14:46:47.064Z,4.10
2018-03-17T14:49:14.589Z,4.10
2018-03-17T14:51:42.080Z,4.00
2018-03-17T14:54:09.693Z,3.90
2018-03-17T14:56:37.198Z,4.00
2018-03-17T14:59:04.742Z,4.10
2018-03-17T15:01:32.243Z,4.10
2018-03-17T15:04:00.511Z,4.00
2018-03-17T15:06:28.801Z,4.00
2018-03-17T15:08:57.078Z,3.80
2018-03-17T15:11:25.356Z,3.90
2018-03-17T15:13:53.634Z,3.80
2018-03-17T15:16:21.163Z,3.70
2018-03-17T15:18:48.738Z,3.80
2018-03-17T15:21:17.028Z,3.70
2018-03-17T15:23:44.558Z,3.70
2018-03-17T15:26:12.822Z,3.70
2018-03-17T15:28:40.320Z,3.70
2018-03-17T15:31:07.827Z,3.80
2018-03-17T15:33:35.373Z,3.70
2018-03-17T15:36:02.875Z,3.60
2018-03-17T15:38:31.277Z,3.80
2018-03-17T15:40:58.773Z,3.80
2018-03-17T15:43:26.257Z,3.70
2018-03-17T15:45:54.536Z,3.70
2018-03-17T15:48:22.784Z,3.60
2018-03-17T15:50:50.307Z,3.60
2018-03-17T15:53:17.792Z,3.40
2018-03-17T15:55:45.390Z,3.40
2018-03-17T15:58:12.909Z,3.30
2018-03-17T16:00:40.456Z,3.40
2018-03-17T16:03:08.084Z,3.40
2018-03-17T16:05:35.595Z,3.50
2018-03-17T16:08:03.100Z,3.70
2018-03-17T16:10:30.607Z,3.50
2018-03-17T16:12:58.166Z,3.40
2018-03-17T16:15:25.620Z,3.20
2018-03-17T16:17:53.914Z,3.00
2018-03-17T16:20:22.205Z,3.00
2018-03-17T16:22:49.732Z,3.00
2018-03-17T16:25:17.219Z,3.00
2018-03-17T16:27:44.764Z,3.00
2018-03-17T16:30:12.303Z,3.00
2018-03-17T16:32:40.596Z,3.30
2018-03-17T16:35:08.106Z,3.20
2018-03-17T16:37:36.785Z,3.40
2018-03-17T16:40:04.276Z,3.50
2018-03-17T16:42:32.554Z,3.30
2018-03-17T16:45:00.829Z,3.10
2018-03-17T16:47:29.103Z,3.10
2018-03-17T16:49:57.402Z,3.20
2018-03-17T16:52:24.960Z,3.10
2018-03-17T16:54:52.486Z,3.00
2018-03-17T16:57:20.008Z,2.90
2018-03-17T16:59:48.290Z,3.00
2018-03-17T17:02:15.891Z,3.00
2018-03-17T17:04:44.161Z,3.10
2018-03-17T17:07:12.411Z,3.00
2018-03-17T17:09:39.949Z,3.00
2018-03-17T17:12:07.447Z,3.20
2018-03-17T17:14:35.710Z,3.30
2018-03-17T17:17:03.230Z,3.20
2018-03-17T17:19:30.725Z,3.60
2018-03-17T17:21:58.243Z,3.60
2018-03-17T17:24:26.496Z,3.10
2018-03-17T17:26:53.992Z,3.10
2018-03-17T17:29:21.529Z,3.00
2018-03-17T17:31:49.112Z,3.00
2018-03-17T17:34:16.626Z,3.10
2018-03-17T17:36:44.171Z,3.00
2018-03-17T17:39:11.682Z,3.10
2018-03-17T17:41:39.172Z,3.30
2018-03-17T17:44:07.448Z,3.40
2018-03-17T17:46:35.721Z,3.30
2018-03-17T17:49:04.044Z,3.30
2018-03-17T17:51:31.552Z,3.20
2018-03-17T17:53:59.832Z,3.20
2018-03-17T17:56:28.246Z,3.30
2018-03-17T17:58:55.821Z,3.20
2018-03-17T18:01:23.342Z,3.40
2018-03-17T18:03:50.868Z,3.40
2018-03-17T18:06:18.374Z,3.80
2018-03-17T18:08:45.877Z,5.10
2018-03-17T18:11:13.585Z,4.70
2018-03-17T18:13:41.141Z,5.40
2018-03-17T18:16:08.898Z,5.10
2018-03-17T18:18:36.441Z,4.30
2018-03-17T18:21:03.966Z,5.00
2018-03-17T18:23:31.579Z,5.50
2018-03-17T18:25:59.088Z,5.80
2018-03-17T18:28:26.632Z,5.30
2018-03-17T18:30:54.136Z,5.00
2018-03-17T18:33:21.688Z,3.70
2018-03-17T18:36:13.552Z,3.20
2018-03-17T18:38:41.861Z,2.90
2018-03-17T18:41:09.389Z,2.80
2018-03-17T18:43:36.911Z,2.90
2018-03-17T18:46:04.441Z,2.90
2018-03-17T18:48:32.719Z,2.40
2018-03-17T18:51:01.018Z,2.20
2018-03-17T18:53:28.589Z,2.10
2018-03-17T18:55:56.125Z,2.20
2018-03-17T18:58:23.653Z,2.10
2018-03-17T19:00:51.177Z,2.00
2018-03-17T19:03:18.694Z,2.10
2018-03-17T19:05:46.960Z,2.10
2018-03-17T19:08:15.249Z,2.00
2018-03-17T19:10:42.775Z,1.90
2018-03-17T19:13:10.270Z,2.00
2018-03-17T19:15:37.785Z,2.00
2018-03-17T19:18:05.383Z,1.90
2018-03-17T19:20:32.885Z,2.00
2018-03-17T19:23:00.403Z,2.10
2018-03-17T19:25:27.910Z,2.10
2018-03-17T19:27:55.504Z,2.00
2018-03-17T19:30:23.783Z,1.90
2018-03-17T19:32:51.329Z,1.80
2018-03-17T19:35:19.603Z,1.90
2018-03-17T19:37:47.874Z,2.00
2018-03-17T19:40:16.148Z,2.00
2018-03-17T19:42:43.693Z,2.00
2018-03-17T19:45:11.181Z,1.90
2018-03-17T19:47:38.718Z,1.70
2018-03-17T19:50:07.011Z,1.50
2018-03-17T19:52:34.574Z,1.50
2018-03-17T19:55:02.088Z,1.70
2018-03-17T19:57:29.605Z,1.50
2018-03-17T19:59:57.123Z,1.40
2018-03-17T20:02:25.401Z,1.40
2018-03-17T20:04:53.666Z,1.50
2018-03-17T20:07:22.068Z,1.40
2018-03-17T20:09:49.578Z,1.30
2018-03-17T20:12:17.105Z,1.30
2018-03-17T20:14:44.657Z,1.20
2018-03-17T20:17:12.189Z,1.30
2018-03-17T20:19:39.687Z,1.10
2018-03-17T20:22:07.185Z,1.20
2018-03-17T20:24:35.583Z,1.20
2018-03-17T20:27:03.079Z,1.10
2018-03-17T20:29:30.648Z,1.20
2018-03-17T20:31:58.388Z,1.10
2018-03-17T20:34:25.917Z,1.20
2018-03-17T20:36:53.475Z,1.10
2018-03-17T20:39:21.027Z,1.20
2018-03-17T20:41:49.278Z,1.00
2018-03-17T20:44:16.870Z,0.90
2018-03-17T20:46:44.375Z,1.00
2018-03-17T20:49:11.954Z,1.00
2018-03-17T20:51:40.255Z,1.10
2018-03-17T20:54:07.817Z,1.10
2018-03-17T20:56:35.315Z,1.20
2018-03-17T20:59:02.830Z,1.10
2018-03-17T21:01:30.373Z,1.10
2018-03-17T21:03:58.673Z,0.90
2018-03-17T21:06:26.190Z,0.80
2018-03-17T21:08:54.474Z,0.70
2018-03-17T21:11:22.745Z,0.50
2018-03-17T21:13:51.109Z,0.50
2018-03-17T21:16:18.605Z,0.40
2018-03-17T21:18:46.098Z,0.50
2018-03-17T21:21:13.610Z,0.60
2018-03-17T21:23:41.102Z,0.60
2018-03-17T21:26:08.624Z,0.50
2018-03-17T21:28:36.143Z,0.40
2018-03-17T21:31:03.640Z,0.50
2018-03-17T21:33:31.157Z,0.40
2018-03-17T21:35:58.647Z,0.40
2018-03-17T21:38:26.158Z,0.50
2018-03-17T21:40:53.714Z,0.50
2018-03-17T21:43:21.203Z,0.50
2018-03-17T21:45:49.493Z,0.30
2018-03-17T21:48:16.995Z,0.30
2018-03-17T21:50:44.497Z,0.30
2018-03-17T21:53:12.822Z,0.30
2018-03-17T21:55:40.327Z,0.30
2018-03-17T21:58:08.595Z,0.40
2018-03-17T22:00:36.916Z,0.20
2018-03-17T22:03:04.421Z,0.20
2018-03-17T22:05:31.918Z,0.20
2018-03-17T22:07:59.420Z,0.00
2018-03-17T22:10:27.034Z,-0.10
2018-03-17T22:12:54.550Z,-0.20
2018-03-17T22:15:22.843Z,0.00
2018-03-17T22:17:51.125Z,0.00
2018-03-17T22:20:18.707Z,-0.10
2018-03-17T22:22:46.992Z,-0.10
2018-03-17T22:25:14.483Z,-0.20
2018-03-17T22:27:41.973Z,-0.10
2018-03-17T22:30:09.498Z,0.00
2018-03-17T22:32:37.089Z,0.00
2018-03-17T22:35:04.593Z,0.00
2018-03-17T22:37:32.099Z,0.00
2018-03-17T22:39:59.613Z,0.00
2018-03-17T22:42:27.143Z,0.00
2018-03-17T22:44:55.623Z,0.00
2018-03-17T22:47:23.115Z,0.00
2018-03-17T22:49:50.642Z,0.10
2018-03-17T22:52:18.166Z,0.10
2018-03-17T22:54:45.699Z,0.00
2018-03-17T22:57:13.956Z,0.00
2018-03-17T22:59:41.674Z,0.00
2018-03-17T23:02:09.181Z,0.00
2018-03-17T23:04:36.706Z,-0.10
2018-03-17T23:07:04.212Z,-0.10
2018-03-17T23:09:32.489Z,-0.10
2018-03-17T23:12:00.788Z,0.00
2018-03-17T23:14:44.166Z,-0.10
2018-03-17T23:17:11.765Z,-0.10
2018-03-17T23:19:39.247Z,0.00
2018-03-17T23:22:06.794Z,0.00
2018-03-17T23:24:34.332Z,-0.10
2018-03-17T23:27:12.107Z,-0.20
2018-03-17T23:29:40.385Z,-0.10
2018-03-17T23:32:08.736Z,-0.20
2018-03-17T23:34:36.239Z,-0.30
2018-03-17T23:37:03.839Z,-0.10
2018-03-17T23:39:31.362Z,-0.10
2018-03-17T23:41:58.988Z,0.00
2018-03-17T23:44:27.303Z,-0.20
2018-03-17T23:46:54.841Z,-0.30
2018-03-17T23:49:23.119Z,-0.20
2018-03-17T23:51:50.664Z,-0.30
2018-03-17T23:54:18.955Z,0.10
2018-03-17T23:56:46.458Z,0.10
2018-03-17T23:59:13.968Z,0.10
